Time;durP1;ratioP1;P1;durP2;ratioP2;P2;SDS_P1;SDS_P2;PMS_P1;PMS_P2;Temp;Humidity;BMP_temperature;BMP_pressure;BME280_temperature;BME280_humidity;BME280_pressure;Samples;Min_cycle;Max_cycle;Signal;HPM_P1;HPM_P2
2021/12/19 00:00:51;;;;;;;21.40;7.45;;;;;;;4.75;100.00;103541.41;5052705;28;20555;-49
2021/12/19 00:03:48;;;;;;;20.92;7.70;;;;;;;5.23;100.00;103618.75;5052641;28;20128;-51
2021/12/19 00:08:58;;;;;;;18.90;6.97;;;;;;;4.71;100.00;103527.38;5052838;28;20419;-50
2021/12/19 00:11:26;;;;;;;20.38;7.47;;;;;;;5.22;100.00;103617.00;5068153;28;20041;-48
2021/12/19 00:13:52;;;;;;;24.50;7.25;;;;;;;5.15;100.00;103590.63;5052552;28;20040;-52
2021/12/19 00:16:17;;;;;;;17.75;7.80;;;;;;;5.06;100.00;103568.59;5052374;28;20037;-51
2021/12/19 00:18:43;;;;;;;22.35;8.70;;;;;;;5.26;100.00;103586.63;5052269;28;20044;-52
2021/12/19 00:21:15;;;;;;;26.92;8.68;;;;;;;4.91;100.00;103531.53;5034615;28;20625;-52
2021/12/19 00:23:44;;;;;;;28.05;8.48;;;;;;;4.96;100.00;103532.56;5067400;28;20494;-51
2021/12/19 00:26:10;;;;;;;24.55;9.15;;;;;;;5.28;100.00;103587.59;5034261;28;20036;-52
2021/12/19 00:28:36;;;;;;;29.25;9.30;;;;;;;5.01;100.00;103533.63;5034359;28;20503;-54
2021/12/19 00:31:02;;;;;;;30.48;10.20;;;;;;;5.34;100.00;103591.28;5034511;28;20040;-52
2021/12/19 00:33:27;;;;;;;23.90;8.35;;;;;;;5.04;100.00;103522.41;5052095;28;20040;-52
2021/12/19 00:35:53;;;;;;;27.27;9.43;;;;;;;5.35;100.00;103587.84;5034305;28;20033;-50
2021/12/19 00:38:18;;;;;;;26.83;8.57;;;;;;;5.42;100.00;103583.69;5050983;28;20021;-49
2021/12/19 00:40:44;;;;;;;26.50;8.32;;;;;;;5.45;100.00;103586.41;5051081;28;20029;-53
2021/12/19 00:43:21;;;;;;;23.80;8.38;;;;;;;5.47;100.00;103569.06;5034391;28;20029;-50
2021/12/19 00:45:47;;;;;;;23.58;8.98;;;;;;;5.09;100.00;103499.94;5052214;28;20127;-53
2021/12/19 00:48:13;;;;;;;22.65;8.40;;;;;;;5.36;100.00;103547.81;5052065;28;20115;-51
2021/12/19 00:50:39;;;;;;;24.88;9.40;;;;;;;5.10;100.00;103497.38;5051972;28;20036;-55
2021/12/19 00:53:04;;;;;;;27.02;9.63;;;;;;;5.23;100.00;103526.47;5052195;28;20029;-50
2021/12/19 00:55:29;;;;;;;25.13;9.43;;;;;;;5.16;100.00;103491.47;5052102;28;20500;-51
2021/12/19 00:57:56;;;;;;;31.65;10.30;;;;;;;5.56;100.00;103564.13;5051994;28;20025;-50
2021/12/19 01:00:25;;;;;;;38.72;11.48;;;;;;;5.55;100.00;103576.28;5050521;28;20369;-50
2021/12/19 01:02:53;;;;;;;31.83;10.02;;;;;;;5.55;100.00;103558.00;5052175;28;20082;-52
2021/12/19 01:05:18;;;;;;;37.90;11.18;;;;;;;5.56;100.00;103551.94;5052353;28;20037;-52
2021/12/19 01:07:44;;;;;;;30.27;9.25;;;;;;;5.56;100.00;103544.13;5050656;28;20473;-51
2021/12/19 01:10:10;;;;;;;28.13;9.05;;;;;;;5.57;100.00;103547.63;5051802;28;20029;-50
2021/12/19 01:12:38;;;;;;;17.50;6.70;;;;;;;5.69;100.00;103561.94;5051872;28;20045;-55
2021/12/19 01:15:09;;;;;;;24.25;6.80;;;;;;;5.74;100.00;103549.03;5051876;28;20082;-50
2021/12/19 01:17:34;;;;;;;13.85;5.63;;;;;;;5.79;100.00;103556.97;5051749;28;20029;-50
2021/12/19 01:20:00;;;;;;;14.63;5.50;;;;;;;5.80;100.00;103541.38;5051626;28;20443;-51
2021/12/19 01:22:25;;;;;;;17.90;6.07;;;;;;;5.83;100.00;103543.19;5051895;28;20102;-52
2021/12/19 01:24:50;;;;;;;21.00;7.20;;;;;;;5.65;100.00;103506.94;5051856;28;20033;-52
2021/12/19 01:27:16;;;;;;;20.85;7.28;;;;;;;5.51;100.00;103474.28;5051658;28;20089;-56
2021/12/19 01:29:41;;;;;;;25.58;8.50;;;;;;;5.95;100.00;103548.81;5051620;28;20435;-50
2021/12/19 01:32:07;;;;;;;23.00;7.78;;;;;;;5.63;100.00;103496.41;5034011;28;20097;-53
2021/12/19 01:34:32;;;;;;;27.50;10.27;;;;;;;5.51;100.00;103463.81;5034134;28;20029;-52
2021/12/19 01:36:57;;;;;;;22.15;9.77;;;;;;;5.96;100.00;103541.00;5051653;28;20029;-55
2021/12/19 01:39:23;;;;;;;19.13;8.77;;;;;;;5.94;100.00;103534.84;5053387;28;20481;-51
2021/12/19 01:41:51;;;;;;;22.88;8.65;;;;;;;5.96;100.00;103540.09;5055218;28;20116;-51
2021/12/19 01:44:17;;;;;;;22.15;8.73;;;;;;;5.80;100.00;103501.28;5054817;28;20083;-52
2021/12/19 01:46:46;;;;;;;24.63;7.88;;;;;;;5.97;100.00;103524.47;5054980;28;20071;-50
2021/12/19 01:49:12;;;;;;;17.27;5.78;;;;;;;5.72;100.00;103479.25;5070347;28;20041;-50
2021/12/19 01:51:38;;;;;;;17.25;5.90;;;;;;;5.97;100.00;103526.19;5037313;28;20484;-51
2021/12/19 01:54:04;;;;;;;21.67;6.00;;;;;;;5.60;100.00;103461.50;5054975;28;20037;-54
2021/12/19 01:56:30;;;;;;;18.08;5.90;;;;;;;5.58;100.00;103460.53;5054804;28;20059;-55
2021/12/19 01:58:55;;;;;;;15.85;5.05;;;;;;;5.60;100.00;103464.09;5054593;28;20079;-54
2021/12/19 02:01:21;;;;;;;15.23;4.82;;;;;;;5.67;100.00;103476.50;5055036;28;20400;-54
2021/12/19 02:03:46;;;;;;;9.15;3.75;;;;;;;5.98;100.00;103522.75;5037032;28;20035;-52
2021/12/19 02:06:12;;;;;;;9.52;3.72;;;;;;;5.98;100.00;103528.00;5055196;28;20037;-51
2021/12/19 02:08:37;;;;;;;10.20;3.70;;;;;;;5.95;100.00;103522.66;5053557;28;20055;-51
2021/12/19 02:11:02;;;;;;;14.25;4.00;;;;;;;5.54;100.00;103445.63;5054818;28;20408;-54
2021/12/19 02:13:28;;;;;;;11.30;3.85;;;;;;;5.97;100.00;103523.59;5053391;28;20094;-54
2021/12/19 02:15:53;;;;;;;11.05;4.00;;;;;;;5.96;100.00;103506.13;5054749;28;20029;-54
2021/12/19 02:18:21;;;;;;;12.57;3.47;;;;;;;5.63;100.00;103446.75;5054673;28;20465;-55
2021/12/19 02:20:50;;;;;;;5.20;2.53;;;;;;;6.05;100.00;103519.47;5036987;28;20434;-53
2021/12/19 02:23:17;;;;;;;7.43;2.22;;;;;;;6.02;100.00;103520.25;5054527;28;20110;-54
2021/12/19 02:25:42;;;;;;;8.85;2.50;;;;;;;5.73;100.00;103452.25;5069944;28;20479;-50
2021/12/19 02:28:08;;;;;;;9.82;2.72;;;;;;;5.77;100.00;103452.41;5036460;28;20025;-55
2021/12/19 02:30:34;;;;;;;8.10;2.90;;;;;;;5.99;100.00;103485.28;5054569;28;20548;-50
2021/12/19 02:32:59;;;;;;;13.23;3.83;;;;;;;5.76;100.00;103445.41;5054376;28;20033;-54
2021/12/19 02:35:29;;;;;;;10.05;3.33;;;;;;;6.08;100.00;103503.84;5053210;28;20373;-53
2021/12/19 02:48:19;;;;;;;23.33;6.45;;;;;;;6.17;100.00;103485.81;5053260;28;20056;-51
2021/12/19 02:50:50;;;;;;;27.67;7.45;;;;;;;6.19;100.00;103507.66;5052646;28;20300;-55
2021/12/19 02:53:19;;;;;;;42.63;9.52;;;;;;;6.18;100.00;103490.22;5054052;28;20025;-51
2021/12/19 02:55:44;;;;;;;37.67;10.60;;;;;;;6.12;100.00;103470.00;5053996;28;20116;-54
2021/12/19 02:58:10;;;;;;;35.33;11.13;;;;;;;6.22;100.00;103485.09;5053952;28;20128;-55
2021/12/19 03:00:36;;;;;;;21.73;8.63;;;;;;;6.26;100.00;103485.19;5069258;28;20037;-53
2021/12/19 03:03:02;;;;;;;25.73;8.80;;;;;;;6.12;100.00;103454.31;5053668;28;20444;-52
2021/12/19 03:05:30;;;;;;;21.75;8.80;;;;;;;6.23;100.00;103468.56;5053683;28;20087;-52
2021/12/19 03:07:56;;;;;;;26.00;9.20;;;;;;;6.25;100.00;103473.81;5035895;28;20456;-55
2021/12/19 03:13:22;;;;;;;25.45;8.18;;;;;;;6.22;100.00;103447.59;5066900;28;20055;-54
2021/12/19 03:18:32;;;;;;;27.98;8.00;;;;;;;6.14;100.00;103423.84;5066770;28;20063;-55
2021/12/19 03:20:58;;;;;;;31.48;8.07;;;;;;;5.89;100.00;103379.59;5053488;28;20251;-54
2021/12/19 03:23:24;;;;;;;30.80;7.65;;;;;;;5.86;100.00;103366.44;5053444;28;20037;-54
2021/12/19 03:25:50;;;;;;;20.17;7.13;;;;;;;5.93;100.00;103375.31;5053335;28;20041;-54
2021/12/19 03:28:16;;;;;;;22.95;6.28;;;;;;;6.22;100.00;103419.72;5068602;28;20037;-51
2021/12/19 03:30:43;;;;;;;31.67;7.28;;;;;;;6.30;100.00;103416.41;5053224;28;20091;-57
2021/12/19 03:33:09;;;;;;;15.55;5.72;;;;;;;6.30;100.00;103419.94;5068641;28;20025;-53
2021/12/19 03:35:35;;;;;;;19.30;6.18;;;;;;;5.88;100.00;103333.38;5053115;28;20078;-52
2021/12/19 03:38:03;;;;;;;21.08;6.82;;;;;;;6.29;100.00;103407.69;5068525;28;20029;-52
2021/12/19 03:40:40;;;;;;;28.48;8.20;;;;;;;5.94;100.00;103330.03;5035185;28;20041;-51
2021/12/19 03:43:09;;;;;;;25.20;7.57;;;;;;;5.95;100.00;103331.81;5052921;28;20033;-55
2021/12/19 03:45:35;;;;;;;32.72;8.52;;;;;;;5.96;100.00;103337.09;5052757;28;20048;-54
2021/12/19 03:48:03;;;;;;;24.35;7.35;;;;;;;6.15;100.00;103368.09;5053021;28;20119;-54
2021/12/19 03:50:30;;;;;;;33.13;8.57;;;;;;;6.27;100.00;103393.69;5052645;28;20033;-50
2021/12/19 03:52:56;;;;;;;22.05;6.95;;;;;;;5.96;100.00;103333.56;5052669;28;20476;-52
2021/12/19 03:55:24;;;;;;;19.45;6.50;;;;;;;6.28;100.00;103397.16;5052646;28;20037;-55
2021/12/19 03:57:49;;;;;;;23.13;6.63;;;;;;;6.02;100.00;103342.47;5052791;28;20037;-51
2021/12/19 04:00:22;;;;;;;17.92;6.10;;;;;;;6.03;100.00;103340.75;5052615;28;20037;-52
2021/12/19 04:02:48;;;;;;;22.00;6.03;;;;;;;6.02;100.00;103321.56;5067182;28;20040;-52
2021/12/19 04:05:13;;;;;;;20.98;6.20;;;;;;;6.39;100.00;103388.75;5034846;28;20035;-53
2021/12/19 04:07:38;;;;;;;17.80;5.75;;;;;;;6.23;100.00;103361.34;5052610;28;20379;-54
2021/12/19 04:10:04;;;;;;;15.23;4.82;;;;;;;6.40;100.00;103385.28;5052536;28;20451;-53
2021/12/19 04:12:30;;;;;;;14.68;4.93;;;;;;;6.12;100.00;103334.03;5052245;28;20055;-54
2021/12/19 04:14:55;;;;;;;13.55;5.03;;;;;;;6.01;100.00;103305.84;5052604;28;20040;-52
2021/12/19 04:17:21;;;;;;;13.73;4.50;;;;;;;6.44;100.00;103379.31;5051287;28;20033;-55
2021/12/19 04:19:46;;;;;;;13.38;4.13;;;;;;;6.45;100.00;103373.19;5067572;28;20041;-54
2021/12/19 04:22:12;;;;;;;14.02;4.53;;;;;;;6.46;100.00;103374.97;5052420;28;20068;-51
2021/12/19 04:24:37;;;;;;;12.57;4.60;;;;;;;6.45;100.00;103361.88;5051096;28;20037;-52
2021/12/19 04:27:03;;;;;;;16.13;5.15;;;;;;;5.09;100.00;103151.00;5067930;28;20039;-52
2021/12/19 04:29:28;;;;;;;10.35;4.30;;;;;;;6.47;100.00;103368.91;5052463;28;20048;-51
2021/12/19 04:31:54;;;;;;;10.98;3.88;;;;;;;6.30;100.00;103353.66;5034525;28;20072;-50
2021/12/19 04:34:20;;;;;;;8.52;3.10;;;;;;;6.26;100.00;103341.31;5052419;28;20037;-54
2021/12/19 04:36:50;;;;;;;8.15;2.90;;;;;;;6.39;100.00;103359.97;5052252;28;20083;-50
2021/12/19 04:42:33;;;;;;;7.20;4.10;;;;;;;6.42;100.00;103354.81;5052429;28;20041;-56
2021/12/19 04:58:01;;;;;;;16.55;8.63;;;;;;;6.53;100.00;103342.00;5052237;28;20531;-55
2021/12/19 05:00:36;;;;;;;21.85;9.20;;;;;;;6.54;100.00;103336.78;5048964;28;20031;-53
2021/12/19 05:03:19;;;;;;;18.77;7.43;;;;;;;6.53;100.00;103344.63;5050313;28;20075;-54
2021/12/19 05:06:09;;;;;;;19.55;7.38;;;;;;;6.51;100.00;103344.56;5051520;28;20045;-52
2021/12/19 05:16:31;;;;;;;7.45;3.28;;;;;;;6.44;100.00;103363.59;5056139;28;20550;-52
2021/12/19 05:19:04;;;;;;;6.72;3.30;;;;;;;6.45;100.00;103361.88;5055407;28;20127;-53
2021/12/19 05:21:30;;;;;;;10.98;3.45;;;;;;;6.14;100.00;103303.56;5055704;28;20392;-51
2021/12/19 05:26:24;;;;;;;9.45;3.33;;;;;;;6.37;100.00;103345.97;5056103;28;20380;-52
2021/12/19 05:28:52;;;;;;;9.25;3.65;;;;;;;6.40;100.00;103359.13;5055384;28;20048;-48
2021/12/19 05:31:18;;;;;;;15.38;4.10;;;;;;;5.94;100.00;103283.88;5055328;28;20033;-52
2021/12/19 05:33:45;;;;;;;16.20;3.80;;;;;;;6.41;100.00;103366.16;5055477;28;20037;-53
2021/12/19 05:46:53;;;;;;;5.50;2.30;;;;;;;5.97;100.00;103272.63;5056940;28;20568;-52
2021/12/19 05:49:19;;;;;;;8.63;2.63;;;;;;;6.27;100.00;103323.06;5055168;28;20365;-51
2021/12/19 05:51:44;;;;;;;7.13;2.58;;;;;;;5.98;100.00;103282.25;5037495;28;20037;-50
2021/12/19 05:54:10;;;;;;;6.75;2.20;;;;;;;5.95;100.00;103271.69;5054917;28;20028;-51
2021/12/19 05:56:36;;;;;;;7.20;1.90;;;;;;;6.05;100.00;103285.03;5055155;28;20037;-50
2021/12/19 05:59:01;;;;;;;5.50;1.77;;;;;;;5.99;100.00;103270.91;5053542;28;20472;-52
2021/12/19 06:01:27;;;;;;;6.53;1.67;;;;;;;6.38;100.00;103344.25;5054966;28;20128;-50
2021/12/19 06:03:52;;;;;;;6.55;2.20;;;;;;;6.39;100.00;103331.19;5054880;28;20037;-52
2021/12/19 06:06:17;;;;;;;7.25;2.22;;;;;;;6.02;100.00;103257.91;5054683;28;20060;-52
2021/12/19 06:08:43;;;;;;;7.00;2.47;;;;;;;6.11;100.00;103266.88;5054669;28;20388;-51
2021/12/19 06:11:08;;;;;;;5.22;2.25;;;;;;;6.40;100.00;103316.38;5054705;28;20476;-52
2021/12/19 06:13:33;;;;;;;7.93;2.40;;;;;;;6.38;100.00;103311.13;5054751;28;20033;-51
2021/12/19 06:15:59;;;;;;;7.28;2.78;;;;;;;6.30;100.00;103297.00;5054704;28;20048;-51
2021/12/19 06:18:24;;;;;;;14.52;3.17;;;;;;;6.15;100.00;103260.00;5054714;28;20464;-52
2021/12/19 06:20:50;;;;;;;8.25;2.95;;;;;;;6.31;100.00;103279.53;5054662;28;20511;-50
2021/12/19 06:23:16;;;;;;;12.13;4.20;;;;;;;6.49;100.00;103322.72;5054429;28;20029;-50
2021/12/19 06:25:45;;;;;;;8.15;3.20;;;;;;;6.46;100.00;103309.56;5053919;28;20041;-53
2021/12/19 06:28:15;;;;;;;9.85;3.47;;;;;;;6.29;100.00;103279.50;5036937;28;20048;-52
2021/12/19 06:30:41;;;;;;;10.93;3.53;;;;;;;6.21;100.00;103265.38;5054452;28;20396;-52
2021/12/19 06:33:06;;;;;;;9.82;3.42;;;;;;;6.45;100.00;103301.69;5054410;28;20041;-54
2021/12/19 06:35:32;;;;;;;9.55;3.03;;;;;;;6.52;100.00;103308.81;5054364;28;20045;-52
2021/12/19 06:37:57;;;;;;;8.05;3.20;;;;;;;6.54;100.00;103308.00;5054266;28;20033;-54
2021/12/19 06:40:23;;;;;;;7.35;3.00;;;;;;;6.53;100.00;103292.28;5054351;28;20129;-52
2021/12/19 06:42:49;;;;;;;7.53;2.80;;;;;;;6.45;100.00;103278.16;5054236;28;20476;-53
2021/12/19 06:45:15;;;;;;;5.72;2.53;;;;;;;6.49;100.00;103293.94;5036169;28;20076;-51
2021/12/19 06:47:40;;;;;;;9.18;2.70;;;;;;;6.13;100.00;103233.78;5053716;28;20503;-52
2021/12/19 06:50:07;;;;;;;5.40;2.83;;;;;;;6.46;100.00;103295.59;5036033;28;20124;-55
2021/12/19 06:52:33;;;;;;;5.03;1.90;;;;;;;6.41;100.00;103287.66;5053784;28;20029;-54
2021/12/19 06:54:58;;;;;;;4.75;1.83;;;;;;;6.35;100.00;103300.59;5054114;28;20040;-54
2021/12/19 06:57:24;;;;;;;6.05;1.90;;;;;;;6.29;100.00;103286.47;5053608;28;20374;-54
2021/12/19 06:59:49;;;;;;;4.03;1.60;;;;;;;6.15;100.00;103266.13;5053829;28;20045;-52
2021/12/19 07:02:16;;;;;;;6.63;1.25;;;;;;;5.92;100.00;103219.34;5053796;28;20116;-55
2021/12/19 07:04:43;;;;;;;4.40;1.42;;;;;;;6.23;100.00;103282.88;5036158;28;20040;-53
2021/12/19 07:07:08;;;;;;;6.75;1.10;;;;;;;6.20;100.00;103297.59;5052383;28;20033;-54
2021/12/19 07:09:34;;;;;;;4.25;1.17;;;;;;;6.15;100.00;103286.16;5053801;28;20116;-53
2021/12/19 07:11:59;;;;;;;3.83;1.42;;;;;;;5.76;100.00;103211.91;5036016;28;20037;-51
2021/12/19 07:14:24;;;;;;;6.25;1.60;;;;;;;5.78;100.00;103212.88;5053686;28;20036;-51
2021/12/19 07:16:50;;;;;;;4.13;1.50;;;;;;;6.16;100.00;103270.47;5053572;28;20106;-52
2021/12/19 07:19:15;;;;;;;6.28;1.42;;;;;;;6.20;100.00;103282.78;5053815;28;20033;-50
2021/12/19 07:21:40;;;;;;;4.75;1.38;;;;;;;6.04;100.00;103253.63;5053289;28;20484;-54
2021/12/19 07:24:06;;;;;;;4.32;1.70;;;;;;;6.21;100.00;103287.19;5053505;28;20033;-52
2021/12/19 07:26:31;;;;;;;4.38;1.40;;;;;;;6.21;100.00;103283.69;5053313;28;20036;-51
2021/12/19 07:28:57;;;;;;;3.65;1.63;;;;;;;5.96;100.00;103229.91;5053302;28;20074;-53
2021/12/19 07:31:23;;;;;;;6.20;1.73;;;;;;;5.82;100.00;103212.97;5053265;28;20060;-50
2021/12/19 07:33:48;;;;;;;8.43;2.58;;;;;;;6.23;100.00;103275.03;5034754;28;20499;-52
2021/12/19 07:36:14;;;;;;;7.60;2.65;;;;;;;6.11;100.00;103248.56;5052301;28;20036;-53
2021/12/19 07:39:06;;;;;;;5.03;2.65;;;;;;;5.92;100.00;103215.00;5053159;28;20040;-55
2021/12/19 07:41:26;;;;;;;6.82;2.90;;;;;;;6.32;100.00;103279.59;5052596;28;20059;-54
2021/12/19 07:43:51;;;;;;;9.05;3.42;;;;;;;5.96;100.00;103216.81;5052969;28;20079;-51
2021/12/19 07:46:16;;;;;;;8.15;3.42;;;;;;;6.29;100.00;103276.91;5052579;28;20057;-51
2021/12/19 07:48:42;;;;;;;8.70;4.28;;;;;;;6.04;100.00;103215.28;5052686;28;20041;-51
2021/12/19 07:51:07;;;;;;;10.15;4.40;;;;;;;6.40;100.00;103279.75;5052658;28;20391;-52
2021/12/19 07:53:33;;;;;;;11.00;4.15;;;;;;;6.13;100.00;103219.84;5052880;28;20066;-53
2021/12/19 07:55:59;;;;;;;13.32;4.75;;;;;;;6.38;100.00;103263.16;5052817;28;20036;-53
2021/12/19 07:58:25;;;;;;;13.65;5.10;;;;;;;6.10;100.00;103222.41;5052978;28;20037;-49
2021/12/19 08:00:50;;;;;;;13.07;5.57;;;;;;;6.45;100.00;103283.38;5052508;28;20106;-54
2021/12/19 08:03:15;;;;;;;11.50;4.55;;;;;;;6.48;100.00;103271.22;5052371;28;20484;-51
2021/12/19 08:05:41;;;;;;;8.43;4.82;;;;;;;6.46;100.00;103274.66;5052764;28;20068;-52
2021/12/19 08:08:06;;;;;;;8.30;4.63;;;;;;;6.06;100.00;103200.53;5052733;28;20060;-51
2021/12/19 08:12:59;;;;;;;8.80;4.20;;;;;;;6.19;100.00;103209.53;5052602;28;20029;-51
2021/12/19 08:15:24;;;;;;;7.57;3.50;;;;;;;6.51;100.00;103259.97;5034734;28;20166;-51
2021/12/19 08:17:49;;;;;;;5.63;3.13;;;;;;;6.12;100.00;103197.16;5052352;28;20522;-49
2021/12/19 08:20:17;;;;;;;8.45;2.90;;;;;;;6.16;100.00;103197.25;5052533;28;20468;-54
2021/12/19 08:22:43;;;;;;;5.43;2.40;;;;;;;6.09;100.00;103182.28;5052569;28;20037;-52
2021/12/19 08:25:08;;;;;;;6.88;2.65;;;;;;;6.52;100.00;103248.66;5052281;28;20085;-50
2021/12/19 08:27:34;;;;;;;4.82;2.20;;;;;;;6.55;100.00;103241.75;5051057;28;20438;-54
2021/12/19 08:30:00;;;;;;;4.45;2.25;;;;;;;6.51;100.00;103244.28;5034514;28;20517;-52
2021/12/19 08:32:26;;;;;;;5.38;2.83;;;;;;;6.45;100.00;103239.78;5052261;28;20392;-51
2021/12/19 08:34:51;;;;;;;3.47;2.00;;;;;;;6.48;100.00;103247.69;5052464;28;20033;-52
2021/12/19 08:37:17;;;;;;;2.78;1.77;;;;;;;6.47;100.00;103245.06;5051366;28;20043;-52
2021/12/19 08:39:43;;;;;;;5.70;2.10;;;;;;;6.52;100.00;103240.78;5052141;28;20384;-52
2021/12/19 08:42:09;;;;;;;3.78;2.08;;;;;;;6.18;100.00;103186.84;5034425;28;20061;-51
2021/12/19 08:44:35;;;;;;;5.65;2.90;;;;;;;6.58;100.00;103247.06;5051962;28;20118;-52
2021/12/19 08:47:01;;;;;;;5.47;2.58;;;;;;;6.60;100.00;103245.34;5052141;28;20029;-53
2021/12/19 08:49:26;;;;;;;6.35;2.40;;;;;;;6.65;100.00;103248.09;5038090;28;20069;-53
2021/12/19 08:51:51;;;;;;;6.70;2.40;;;;;;;6.68;100.00;103237.69;5055085;28;20498;-54
2021/12/19 08:54:17;;;;;;;7.20;2.95;;;;;;;6.74;100.00;103258.75;5038281;28;20476;-50
2021/12/19 08:56:42;;;;;;;3.80;2.40;;;;;;;6.70;100.00;103236.88;5055050;28;20029;-51
2021/12/19 08:59:09;;;;;;;5.07;2.25;;;;;;;6.38;100.00;103177.72;5055894;28;20063;-53
2021/12/19 09:01:36;;;;;;;3.92;2.50;;;;;;;6.76;100.00;103251.81;5054645;28;20060;-52
2021/12/19 09:04:01;;;;;;;8.55;2.70;;;;;;;6.61;100.00;103220.97;5055885;28;20418;-51
2021/12/19 09:06:27;;;;;;;5.25;2.70;;;;;;;6.52;100.00;103196.31;5055029;28;20033;-49
2021/12/19 09:08:52;;;;;;;7.68;3.10;;;;;;;6.70;100.00;103223.78;5038036;28;20033;-49
2021/12/19 09:11:18;;;;;;;4.97;2.88;;;;;;;6.76;100.00;103217.78;5070134;28;20093;-48
2021/12/19 09:13:43;;;;;;;4.85;2.22;;;;;;;6.86;100.00;103239.81;5057981;28;20064;-51
2021/12/19 09:16:08;;;;;;;5.30;2.65;;;;;;;6.81;100.00;103226.59;5075806;28;20170;-51
2021/12/19 09:18:35;;;;;;;4.75;1.70;;;;;;;6.93;100.00;103241.69;5061546;28;20067;-51
2021/12/19 09:21:00;;;;;;;5.00;1.73;;;;;;;6.52;100.00;103165.81;5055909;28;20040;-50
2021/12/19 09:23:27;;;;;;;4.30;1.80;;;;;;;6.42;100.00;103160.34;5037876;28;20040;-50
2021/12/19 09:25:52;;;;;;;3.03;1.77;;;;;;;6.85;100.00;103223.22;5055615;28;20400;-50
2021/12/19 09:28:18;;;;;;;5.13;1.75;;;;;;;6.51;100.00;103171.88;5055678;28;20037;-51
2021/12/19 09:30:44;;;;;;;3.10;1.92;;;;;;;6.88;100.00;103223.28;5037743;28;20033;-49
2021/12/19 09:33:09;;;;;;;6.82;2.13;;;;;;;6.83;100.00;103209.19;5037714;28;20025;-49
2021/12/19 09:35:35;;;;;;;4.47;1.98;;;;;;;6.89;100.00;103211.94;5037688;28;20040;-50
2021/12/19 09:38:02;;;;;;;5.15;2.45;;;;;;;6.95;100.00;103213.78;5055409;28;20029;-50
2021/12/19 09:40:33;;;;;;;7.38;3.20;;;;;;;6.81;100.00;103192.56;5037308;28;20120;-49
2021/12/19 09:43:03;;;;;;;7.00;2.85;;;;;;;7.02;100.00;103226.16;5055037;28;20056;-52
2021/12/19 09:45:29;;;;;;;4.32;2.17;;;;;;;6.79;100.00;103176.84;5054935;28;20091;-53
2021/12/19 09:47:55;;;;;;;3.78;1.95;;;;;;;6.70;100.00;103144.38;5055465;28;20115;-52
2021/12/19 09:50:20;;;;;;;6.20;1.73;;;;;;;6.78;100.00;103188.16;5037309;28;20487;-51
2021/12/19 09:52:46;;;;;;;5.20;2.22;;;;;;;6.96;100.00;103205.97;5055067;28;20041;-50
2021/12/19 09:55:17;;;;;;;3.15;1.27;;;;;;;7.08;100.00;103226.28;5055019;28;20057;-51
2021/12/19 09:57:42;;;;;;;6.35;1.50;;;;;;;7.00;100.00;103220.91;5037662;28;20415;-51
2021/12/19 10:00:08;;;;;;;5.65;3.10;;;;;;;6.74;100.00;103148.81;5053783;28;20051;-50
2021/12/19 10:02:34;;;;;;;5.15;1.52;;;;;;;7.16;100.00;103208.97;5036867;28;20067;-49
2021/12/19 10:05:14;;;;;;;4.95;1.50;;;;;;;7.14;100.00;103208.97;5054863;28;20064;-51
2021/12/19 10:07:46;;;;;;;2.28;1.20;;;;;;;7.12;100.00;103209.78;5053504;28;20036;-49
2021/12/19 10:10:13;;;;;;;2.28;1.35;;;;;;;6.68;100.00;103148.69;5054128;28;20028;-50
2021/12/19 10:12:51;;;;;;;3.85;1.40;;;;;;;7.11;100.00;103216.75;5036883;28;20029;-48
2021/12/19 10:15:32;;;;;;;6.10;2.00;;;;;;;7.13;100.00;103199.34;5054307;28;20059;-50
2021/12/19 10:18:03;;;;;;;7.07;2.30;;;;;;;6.74;100.00;103130.50;5054652;28;20036;-54
2021/12/19 10:20:40;;;;;;;10.07;2.92;;;;;;;7.17;100.00;103193.31;5054358;28;20066;-50
2021/12/19 10:23:10;;;;;;;13.75;4.72;;;;;;;6.01;100.00;103006.06;5054720;28;20545;-52
2021/12/19 10:25:36;;;;;;;8.57;2.95;;;;;;;6.86;100.00;103127.25;5054663;28;20057;-49
2021/12/19 10:28:03;;;;;;;10.98;2.75;;;;;;;7.18;100.00;103181.97;5054072;28;20063;-50
2021/12/19 10:30:34;;;;;;;4.93;2.25;;;;;;;7.27;100.00;103196.97;5036645;28;20036;-49
2021/12/19 10:33:11;;;;;;;9.38;3.10;;;;;;;6.89;100.00;103115.06;5054379;28;20029;-51
2021/12/19 10:35:43;;;;;;;8.18;2.80;;;;;;;7.25;100.00;103202.19;5036337;28;20056;-49
2021/12/19 10:38:15;;;;;;;7.97;3.47;;;;;;;7.14;100.00;103164.44;5054205;28;20449;-51
2021/12/19 10:40:49;;;;;;;11.23;3.45;;;;;;;7.32;100.00;103183.13;5036431;28;20070;-52
2021/12/19 10:43:17;;;;;;;9.07;3.65;;;;;;;6.99;100.00;103114.41;5054227;28;20408;-51
2021/12/19 10:46:04;;;;;;;8.93;3.42;;;;;;;7.36;100.00;103181.41;5016477;28;20056;-52
2021/12/19 10:48:43;;;;;;;9.00;3.97;;;;;;;6.90;100.00;103111.59;5033525;28;20069;-53
2021/12/19 10:51:10;;;;;;;8.68;3.67;;;;;;;7.27;100.00;103165.53;5016489;28;20037;-50
2021/12/19 10:53:38;;;;;;;12.40;3.58;;;;;;;7.32;100.00;103166.53;5033948;28;20080;-50
2021/12/19 10:56:10;;;;;;;11.32;3.45;;;;;;;7.08;100.00;103092.72;5033919;28;20033;-50
2021/12/19 10:58:45;;;;;;;8.85;4.05;;;;;;;6.88;100.00;103067.94;5032208;28;20037;-49
2021/12/19 11:01:17;;;;;;;7.75;4.10;;;;;;;6.98;100.00;103082.94;5032733;28;20071;-51
2021/12/19 11:04:10;;;;;;;11.27;3.88;;;;;;;7.41;100.00;103145.72;5033871;28;20025;-48
2021/12/19 11:06:40;;;;;;;13.82;4.85;;;;;;;7.26;100.00;103112.28;5026057;28;20049;-51
2021/12/19 11:09:09;;;;;;;9.63;4.80;;;;;;;7.05;100.00;103083.09;5034162;28;20034;-50
2021/12/19 11:12:00;;;;;;;11.00;5.00;;;;;;;7.42;100.00;103141.34;5031536;28;20033;-51
2021/12/19 11:14:37;;;;;;;10.90;4.82;;;;;;;7.11;100.00;103091.06;5033663;28;20029;-54
2021/12/19 11:17:10;;;;;;;14.15;4.93;;;;;;;7.42;100.00;103136.09;5032341;28;20035;-49
2021/12/19 11:19:37;;;;;;;13.23;4.43;;;;;;;7.35;100.00;103136.00;5033558;28;20459;-51
2021/12/19 11:22:03;;;;;;;10.38;4.00;;;;;;;7.13;100.00;103080.59;5033574;28;20057;-54
2021/12/19 11:24:28;;;;;;;12.77;3.83;;;;;;;7.41;100.00;103137.84;5032208;28;20033;-49
2021/12/19 11:26:58;;;;;;;6.45;3.35;;;;;;;7.31;100.00;103104.47;5033362;28;20040;-52
2021/12/19 11:29:24;;;;;;;10.18;3.22;;;;;;;7.33;100.00;103111.50;5031348;28;20600;-53
2021/12/19 11:31:52;;;;;;;11.02;3.45;;;;;;;7.32;100.00;103107.16;5033028;28;20108;-53
2021/12/19 11:34:29;;;;;;;11.35;3.47;;;;;;;7.00;100.00;103047.22;5033219;28;20041;-53
2021/12/19 11:37:02;;;;;;;13.93;3.65;;;;;;;7.36;100.00;103097.56;5032090;28;20030;-51
2021/12/19 11:39:31;;;;;;;10.52;3.10;;;;;;;7.41;100.00;103113.38;5033043;28;20033;-48
2021/12/19 11:42:03;;;;;;;15.55;3.65;;;;;;;7.00;100.00;103040.25;5033032;28;20477;-51
2021/12/19 11:44:45;;;;;;;10.30;3.30;;;;;;;7.42;100.00;103095.06;5033523;28;20037;-51
2021/12/19 11:47:15;;;;;;;12.95;3.63;;;;;;;7.07;100.00;103031.59;5033042;28;20033;-53
2021/12/19 11:49:40;;;;;;;16.95;4.35;;;;;;;7.32;100.00;103075.72;5031839;28;20034;-51
2021/12/19 11:52:41;;;;;;;11.77;3.83;;;;;;;7.48;100.00;103092.53;5031715;28;20113;-49
2021/12/19 11:55:15;;;;;;;14.32;3.83;;;;;;;7.47;100.00;103082.94;4990976;28;20505;-51
2021/12/19 11:57:42;;;;;;;13.82;3.97;;;;;;;7.40;100.00;103075.81;5026272;28;20464;-50
2021/12/19 12:00:29;;;;;;;11.35;3.97;;;;;;;7.41;100.00;103071.47;5031359;28;20404;-51
2021/12/19 12:03:12;;;;;;;16.15;4.53;;;;;;;7.51;100.00;103089.09;5032500;28;20408;-51
2021/12/19 12:05:51;;;;;;;10.27;4.32;;;;;;;7.47;100.00;103092.53;5032588;28;20493;-52
2021/12/19 12:08:21;;;;;;;13.50;4.30;;;;;;;7.42;100.00;103092.44;5030560;28;20432;-52
2021/12/19 12:13:44;;;;;;;9.15;3.72;;;;;;;7.42;100.00;103092.44;5032459;28;20529;-54
2021/12/19 12:16:24;;;;;;;10.75;3.08;;;;;;;7.43;100.00;103085.47;5032321;28;20032;-51
2021/12/19 12:19:01;;;;;;;10.25;2.95;;;;;;;7.32;100.00;103067.84;5032445;28;20068;-51
2021/12/19 12:21:39;;;;;;;7.78;2.95;;;;;;;7.04;100.00;103018.47;5031950;28;20500;-53
2021/12/19 12:24:06;;;;;;;8.63;2.42;;;;;;;7.32;100.00;103070.47;5031953;28;20113;-53
2021/12/19 12:26:38;;;;;;;6.53;2.20;;;;;;;7.25;100.00;103079.06;5030516;28;20056;-54